Time;durP1;ratioP1;P1;durP2;ratioP2;P2;SDS_P1;SDS_P2;PMS_P1;PMS_P2;Temp;Humidity;BMP_temperature;BMP_pressure;BME280_temperature;BME280_humidity;BME280_pressure;Samples;Min_cycle;Max_cycle;Signal;HPM_P1;HPM_P2
2022/04/08 00:01:25;;;;;;;12.05;8.52;;;333.40;2329.60;;;;;;5055256;28;20029;-75
2022/04/08 00:03:52;;;;;;;12.15;6.03;;;333.30;2329.60;;;;;;5054956;28;20028;-75
2022/04/08 00:06:18;;;;;;;11.05;6.88;;;333.00;2329.60;;;;;;5053693;28;20021;-76
2022/04/08 00:08:45;;;;;;;5.93;2.85;;;333.20;2329.60;;;;;;5065654;28;20029;-76
2022/04/08 00:11:11;;;;;;;8.85;3.97;;;333.40;2329.60;;;;;;5056733;28;20032;-75
2022/04/08 00:13:37;;;;;;;3.75;2.80;;;333.50;2329.60;;;;;;5056762;28;20055;-76
2022/04/08 00:16:03;;;;;;;4.10;2.83;;;333.70;2329.60;;;;;;5074342;28;20032;-75
2022/04/08 00:18:29;;;;;;;4.00;2.83;;;333.70;2329.60;;;;;;5074141;28;20456;-75
2022/04/08 00:20:56;;;;;;;4.93;2.25;;;333.60;2329.60;;;;;;5074604;28;20491;-75
2022/04/08 00:23:22;;;;;;;9.50;3.88;;;333.70;2329.60;;;;;;5074683;28;20053;-75
2022/04/08 00:25:47;;;;;;;10.57;7.80;;;333.70;2329.60;;;;;;5073728;28;20087;-75
2022/04/08 00:28:13;;;;;;;11.40;9.20;;;333.50;2329.60;;;;;;5076521;28;20032;-75
2022/04/08 00:30:39;;;;;;;21.88;13.77;;;333.10;2329.60;;;;;;5056466;28;20060;-75
2022/04/08 00:33:05;;;;;;;20.20;14.57;;;308.10;2304.00;;;;;;5056517;28;20033;-75
2022/04/08 00:35:31;;;;;;;16.65;12.07;;;307.70;2304.00;;;;;;5075271;28;20025;-76
2022/04/08 00:37:57;;;;;;;16.38;11.88;;;307.40;2304.00;;;;;;5075226;28;20467;-76
2022/04/08 00:40:23;;;;;;;17.55;12.95;;;307.20;2304.00;;;;;;5057178;28;20474;-76
2022/04/08 00:42:49;;;;;;;14.43;12.15;;;282.20;2278.40;;;;;;5059325;28;20111;-76
2022/04/08 00:45:15;;;;;;;17.23;12.43;;;282.00;2278.40;;;;;;5058585;28;20387;-76
2022/04/08 00:47:41;;;;;;;15.40;12.13;;;281.90;2278.40;;;;;;5056728;28;20025;-75
2022/04/08 00:50:09;;;;;;;13.95;11.65;;;281.70;2278.40;;;;;;5056446;28;20365;-74
2022/04/08 00:52:36;;;;;;;15.75;11.60;;;256.90;2252.80;;;;;;5074207;28;20387;-76
2022/04/08 00:55:03;;;;;;;16.77;13.00;;;256.70;2252.80;;;;;;5055782;28;20031;-76
2022/04/08 00:57:30;;;;;;;14.65;12.25;;;256.60;2252.80;;;;;;5056052;28;20447;-75
2022/04/08 00:59:57;;;;;;;17.52;12.45;;;256.60;2252.80;;;;;;5073621;28;20036;-76
2022/04/08 01:02:25;;;;;;;20.58;15.68;;;256.40;2252.80;;;;;;5055927;28;20024;-75
2022/04/08 01:04:50;;;;;;;19.88;16.15;;;256.30;2252.80;;;;;;5055808;28;20116;-75
2022/04/08 01:07:16;;;;;;;21.85;15.18;;;256.20;2252.80;;;;;;5073986;28;20099;-74
2022/04/08 01:09:42;;;;;;;16.77;14.35;;;256.30;2252.80;;;;;;5055275;28;20498;-75
2022/04/08 01:12:08;;;;;;;19.50;15.43;;;256.20;2252.80;;;;;;5073665;28;20021;-75
2022/04/08 01:14:34;;;;;;;20.33;16.55;;;;;;;;;;5051880;28;20079;-76
2022/04/08 01:17:00;;;;;;;23.90;16.42;;;;;;;;;;5052348;28;20025;-77
2022/04/08 01:19:26;;;;;;;22.42;17.95;;;;;;;;;;5053171;28;20039;-76
2022/04/08 01:21:52;;;;;;;24.40;18.77;;;;;;;;;;5053700;28;20024;-75
2022/04/08 01:24:19;;;;;;;26.90;20.73;;;;;;;;;;5052319;28;20456;-75
2022/04/08 01:26:45;;;;;;;28.50;21.27;;;;;;;;;;5053022;28;20025;-75
2022/04/08 01:29:10;;;;;;;26.23;19.15;;;231.30;2252.80;;;;;;5053175;28;20361;-75
2022/04/08 01:31:37;;;;;;;26.60;21.35;;;231.20;2252.80;;;;;;5053930;28;20116;-74
2022/04/08 01:34:03;;;;;;;27.05;20.30;;;231.10;2252.80;;;;;;5053744;28;20104;-76
2022/04/08 01:36:28;;;;;;;34.72;21.95;;;231.00;2252.80;;;;;;5051871;28;20064;-76
2022/04/08 01:38:54;;;;;;;37.72;24.73;;;231.00;2252.80;;;;;;5054755;28;20135;-76
2022/04/08 01:41:20;;;;;;;27.20;21.40;;;231.00;2252.80;;;;;;5073418;28;20352;-76
2022/04/08 01:43:46;;;;;;;31.58;21.48;;;231.00;2252.80;;;;;;5073350;28;20520;-75
2022/04/08 01:46:12;;;;;;;32.30;21.40;;;230.90;2252.80;;;;;;5055181;28;20031;-75
2022/04/08 01:48:37;;;;;;;31.83;20.92;;;230.80;2252.80;;;;;;5054929;28;20029;-75
2022/04/08 01:51:04;;;;;;;44.08;32.45;;;230.80;2252.80;;;;;;5055022;28;20048;-75
2022/04/08 01:53:29;;;;;;;42.55;27.63;;;230.70;2252.80;;;;;;5073041;28;20025;-75
2022/04/08 01:55:55;;;;;;;34.58;26.38;;;230.70;2252.80;;;;;;5054980;28;20020;-75
2022/04/08 01:58:21;;;;;;;35.30;26.48;;;230.70;2252.80;;;;;;5050927;28;20037;-76
2022/04/08 02:00:46;;;;;;;37.58;25.67;;;230.70;2252.80;;;;;;5051375;28;20052;-75
2022/04/08 02:03:12;;;;;;;34.15;25.40;;;230.70;2252.80;;;;;;5051316;28;20057;-75
2022/04/08 02:05:38;;;;;;;41.05;26.33;;;230.70;2252.80;;;;;;5034583;28;20051;-75
2022/04/08 02:08:04;;;;;;;34.42;26.80;;;230.70;2252.80;;;;;;5054109;28;20032;-76
2022/04/08 02:10:29;;;;;;;36.75;25.30;;;230.70;2252.80;;;;;;5072582;28;20083;-75
2022/04/08 02:12:55;;;;;;;36.08;25.98;;;230.60;2252.80;;;;;;5072335;28;20051;-76
2022/04/08 02:15:32;;;;;;;36.80;24.75;;;230.60;2252.80;;;;;;5071522;28;20025;-77
2022/04/08 02:17:58;;;;;;;40.03;28.08;;;230.60;2252.80;;;;;;5071807;28;20074;-75
2022/04/08 02:20:24;;;;;;;41.20;31.10;;;230.50;2252.80;;;;;;5054274;28;20032;-75
2022/04/08 02:22:50;;;;;;;40.45;28.63;;;230.50;2252.80;;;;;;5054281;28;20532;-75
2022/04/08 02:25:17;;;;;;;41.50;29.90;;;230.40;2252.80;;;;;;5072277;28;20025;-75
2022/04/08 02:27:43;;;;;;;37.97;28.02;;;205.70;2252.80;;;;;;5072293;28;20032;-76
2022/04/08 02:30:12;;;;;;;36.15;25.73;;;205.70;2252.80;;;;;;5072197;28;20066;-76
2022/04/08 02:32:38;;;;;;;15.70;9.63;;;230.40;2252.80;;;;;;5070983;28;20102;-75
2022/04/08 02:35:04;;;;;;;22.75;14.75;;;230.90;2252.80;;;;;;5071876;28;20060;-75
2022/04/08 02:37:31;;;;;;;18.23;11.35;;;231.00;2252.80;;;;;;5053893;28;20035;-75
2022/04/08 02:39:57;;;;;;;18.75;10.38;;;256.00;2252.80;;;;;;5072266;28;20391;-75
2022/04/08 02:42:22;;;;;;;18.63;12.75;;;256.70;2252.80;;;;;;5057625;28;20482;-75
2022/04/08 02:44:48;;;;;;;13.68;7.43;;;;;;;;;;5054102;28;20029;-75
2022/04/08 02:47:14;;;;;;;13.65;7.65;;;;;;;;;;5071346;28;20025;-77
2022/04/08 02:49:41;;;;;;;9.82;7.88;;;;;;;;;;5053774;28;20064;-76
2022/04/08 02:52:07;;;;;;;10.40;6.03;;;;;;;;;;5071358;28;20100;-76
2022/04/08 02:54:33;;;;;;;13.65;8.60;;;;;;;;;;5053839;28;20032;-75
2022/04/08 02:56:59;;;;;;;10.90;7.85;;;;;;;;;;5053957;28;20016;-75
2022/04/08 02:59:25;;;;;;;8.95;6.40;;;;;;;;;;5053758;28;20033;-75
2022/04/08 03:01:52;;;;;;;18.77;10.02;;;;;;;;;;5071580;28;20044;-75
2022/04/08 03:04:18;;;;;;;25.17;16.00;;;;;;;;;;5053750;28;20021;-76
2022/04/08 03:06:44;;;;;;;23.33;17.25;;;;;;;;;;5053737;28;20036;-75
2022/04/08 03:09:10;;;;;;;19.25;12.38;;;;;;;;;;5049982;28;20059;-76
2022/04/08 03:11:36;;;;;;;17.42;11.63;;;;;;;;;;5051786;28;20025;-75
2022/04/08 03:14:04;;;;;;;15.32;11.07;;;;;;;;;;5050637;28;20017;-75
2022/04/08 03:16:31;;;;;;;21.48;14.88;;;;;;;;;;5051925;28;20013;-76
2022/04/08 03:18:57;;;;;;;22.33;15.07;;;;;;;;;;5050415;28;20033;-76
2022/04/08 03:21:23;;;;;;;15.95;10.23;;;;;;;;;;5050288;28;20111;-76
2022/04/08 03:23:49;;;;;;;24.67;14.32;;;;;;;;;;5050141;28;20032;-75
2022/04/08 03:26:15;;;;;;;16.17;9.65;;;;;;;;;;5051821;28;20175;-76
2022/04/08 03:28:43;;;;;;;29.33;17.15;;;;;;;;;;5051431;28;20021;-76
2022/04/08 03:31:09;;;;;;;37.03;11.63;;;;;;;;;;5051758;28;20028;-76
2022/04/08 03:33:37;;;;;;;24.48;12.50;;;;;;;;;;5051816;28;20068;-76
2022/04/08 03:36:04;;;;;;;26.88;17.73;;;;;;;;;;5050459;28;20029;-76
2022/04/08 03:38:31;;;;;;;28.98;22.20;;;;;;;;;;5065247;28;20106;-76
2022/04/08 03:40:57;;;;;;;25.40;17.50;;;;;;;;;;5055669;28;20056;-76
2022/04/08 03:43:23;;;;;;;32.30;18.75;;;;;;;;;;5054657;28;20028;-76
2022/04/08 03:45:49;;;;;;;9.40;6.60;;;;;;;;;;5053171;28;20039;-75
2022/04/08 03:48:15;;;;;;;30.33;17.25;;;;;;;;;;5071684;28;20024;-75
2022/04/08 03:50:41;;;;;;;27.90;16.40;;;;;;;;;;5053362;28;20090;-76
2022/04/08 03:53:10;;;;;;;19.75;10.95;;;;;;;;;;5053293;28;20460;-75
2022/04/08 03:55:36;;;;;;;20.50;10.95;;;;;;;;;;5053190;28;20379;-76
2022/04/08 03:58:03;;;;;;;14.00;9.80;;;;;;;;;;5053092;28;20032;-75
2022/04/08 04:00:29;;;;;;;19.70;6.90;;;;;;;;;;5051221;28;20091;-75
2022/04/08 04:02:55;;;;;;;11.68;4.05;;;;;;;;;;5053864;28;20024;-75
2022/04/08 04:05:21;;;;;;;7.03;4.82;;;;;;;;;;5058440;28;20099;-76
2022/04/08 04:07:47;;;;;;;18.88;9.82;;;;;;;;;;5045562;28;20036;-75
2022/04/08 04:10:14;;;;;;;23.80;15.68;;;;;;;;;;5058189;28;20025;-76
2022/04/08 04:12:42;;;;;;;24.05;16.45;;;;;;;;;;5073076;28;20031;-75
2022/04/08 04:15:08;;;;;;;25.83;19.25;;;;;;;;;;5056385;28;20027;-76
2022/04/08 04:17:35;;;;;;;30.77;20.40;;;;;;;;;;5054949;28;20025;-76
2022/04/08 04:20:01;;;;;;;27.63;20.63;;;;;;;;;;5073219;28;20032;-75
2022/04/08 04:22:27;;;;;;;36.25;21.52;;;;;;;;;;5053495;28;20025;-76
2022/04/08 04:24:53;;;;;;;27.55;21.27;;;;;;;;;;5055208;28;20016;-75
2022/04/08 04:27:19;;;;;;;28.85;20.08;;;;;;;;;;5055468;28;20031;-76
2022/04/08 04:29:45;;;;;;;25.25;20.60;;;;;;;;;;5073173;28;20086;-76
2022/04/08 04:32:11;;;;;;;33.35;21.35;;;;;;;;;;5055267;28;20043;-75
2022/04/08 04:34:38;;;;;;;33.00;22.42;;;;;;;;;;5073293;28;20025;-75
2022/04/08 04:37:05;;;;;;;45.75;25.20;;;;;;;;;;5074210;28;20026;-75
2022/04/08 04:39:31;;;;;;;37.00;24.92;;;;;;;;;;5073153;28;20399;-77
2022/04/08 04:41:58;;;;;;;36.00;25.63;;;;;;;;;;5052443;28;20029;-77
2022/04/08 04:44:26;;;;;;;37.72;24.00;;;;;;;;;;5054611;28;20505;-76
2022/04/08 04:46:53;;;;;;;35.63;22.45;;;;;;;;;;5056510;28;20028;-76
2022/04/08 04:49:19;;;;;;;44.33;21.80;;;;;;;;;;5055816;28;20024;-75
2022/04/08 04:51:45;;;;;;;36.25;23.23;;;;;;;;;;5073150;28;20123;-78
2022/04/08 04:54:11;;;;;;;41.42;21.65;;;;;;;;;;5055925;28;20629;-79
2022/04/08 04:56:37;;;;;;;46.25;23.02;;;;;;;;;;5074153;28;20040;-79
2022/04/08 04:59:03;;;;;;;32.83;22.55;;;;;;;;;;5056195;28;20043;-78
2022/04/08 05:01:29;;;;;;;37.22;21.23;;;;;;;;;;5051999;28;21010;-81
2022/04/08 05:03:55;;;;;;;36.15;21.23;;;;;;;;;;5056486;28;20502;-79
2022/04/08 05:06:21;;;;;;;35.50;21.83;;;;;;;;;;5073780;28;20143;-78
2022/04/08 05:08:47;;;;;;;29.67;18.67;;;;;;;;;;5073187;28;20490;-77
2022/04/08 05:11:15;;;;;;;37.88;20.02;;;;;;;;;;5055238;28;20039;-78
2022/04/08 05:13:41;;;;;;;38.67;22.48;;;;;;;;;;5055613;28;20025;-78
2022/04/08 05:16:08;;;;;;;64.72;26.85;;;;;;;;;;5055397;28;20021;-79
2022/04/08 05:18:34;;;;;;;53.75;25.02;;;;;;;;;;5055376;28;20730;-78
2022/04/08 05:21:00;;;;;;;38.70;22.95;;;;;;;;;;5055414;28;20021;-78
2022/04/08 05:23:29;;;;;;;52.63;28.60;;;;;;;;;;5055240;28;20036;-78
2022/04/08 05:25:56;;;;;;;41.25;28.80;;;;;;;;;;5073322;28;20017;-77
2022/04/08 05:28:22;;;;;;;48.63;33.92;;;;;;;;;;5073044;28;20031;-79
2022/04/08 05:30:48;;;;;;;64.50;36.30;;;;;;;;;;5055308;28;20120;-77
2022/04/08 05:33:14;;;;;;;26.08;19.60;;;;;;;;;;5073236;28;20020;-78
2022/04/08 05:35:40;;;;;;;43.35;27.17;;;;;;;;;;5072950;28;20028;-78
2022/04/08 05:38:06;;;;;;;48.40;29.52;;;;;;;;;;5054738;28;20527;-77
2022/04/08 05:40:32;;;;;;;49.65;28.73;;;;;;;;;;5055920;28;20017;-77
2022/04/08 05:42:58;;;;;;;56.22;25.48;;;;;;;;;;5067243;28;20025;-78
2022/04/08 05:45:24;;;;;;;35.17;24.25;;;;;;;;;;5052708;28;20099;-78
2022/04/08 05:47:52;;;;;;;31.15;19.17;;;;;;;;;;5034978;28;20048;-77
2022/04/08 05:50:19;;;;;;;28.27;20.25;;;;;;;;;;5034626;28;20140;-79
2022/04/08 05:52:47;;;;;;;37.78;21.52;;;;;;;;;;5034787;28;20017;-78
2022/04/08 05:55:13;;;;;;;39.35;22.40;;;;;;;;;;5052813;28;20021;-77
2022/04/08 05:57:42;;;;;;;44.28;22.73;;;;;;;;;;5052468;28;20062;-78
2022/04/08 06:00:10;;;;;;;44.92;25.77;;;;;;;;;;5034701;28;20575;-79
2022/04/08 06:02:36;;;;;;;47.08;25.65;;;;;;;;;;5035044;28;20025;-78
2022/04/08 06:05:03;;;;;;;50.65;25.38;;;;;;;;;;5054122;28;20539;-77
2022/04/08 06:07:29;;;;;;;40.08;22.60;;;;;;;;;;5072019;28;20025;-77
2022/04/08 06:09:56;;;;;;;43.90;23.30;;;;;;;;;;5054396;28;20218;-77
2022/04/08 06:12:22;;;;;;;45.70;23.88;;;;;;;;;;5072172;28;20017;-78
2022/04/08 06:14:48;;;;;;;26.23;11.07;;;;;;;;;;5072335;28;20016;-78
2022/04/08 06:17:14;;;;;;;44.10;20.60;;;;;;;;;;5071977;28;20100;-77
2022/04/08 06:19:45;;;;;;;36.70;15.35;;;;;;;;;;5053809;28;20032;-76
2022/04/08 06:22:11;;;;;;;39.45;20.73;;;;;;;;;;5072061;28;20502;-78
2022/04/08 06:24:37;;;;;;;49.95;19.48;;;;;;;;;;5054210;28;20031;-79
2022/04/08 06:27:03;;;;;;;49.83;22.77;;;;;;;;;;5054284;28;20050;-78
2022/04/08 06:29:29;;;;;;;51.00;21.20;;;;;;;;;;5072024;28;20482;-79
2022/04/08 06:31:55;;;;;;;17.30;9.30;;;;;;;;;;5071748;28;20099;-78
2022/04/08 06:34:21;;;;;;;15.57;5.55;;;;;;;;;;5053891;28;20020;-78
2022/04/08 06:36:47;;;;;;;8.85;5.20;;;;;;;;;;5053496;28;20028;-79
2022/04/08 06:39:13;;;;;;;17.98;5.10;;;;;;;;;;5053564;28;20032;-77
2022/04/08 06:41:39;;;;;;;7.28;4.18;;;;;;;;;;5071704;28;20506;-76
2022/04/08 06:44:05;;;;;;;7.43;4.15;;;;;;;;;;5051617;28;20013;-78
2022/04/08 06:46:31;;;;;;;11.75;5.28;;;;;;;;;;5050438;28;20464;-78
2022/04/08 06:49:02;;;;;;;6.75;3.80;;;;;;;;;;5051787;28;20464;-76
2022/04/08 06:51:29;;;;;;;10.80;5.90;;;;;;;;;;5051743;28;20052;-79
2022/04/08 06:53:55;;;;;;;6.82;4.00;;;;;;;;;;5050477;28;20025;-79
2022/04/08 06:56:21;;;;;;;10.68;4.13;;;;;;;;;;5051621;28;20478;-79
2022/04/08 06:58:47;;;;;;;13.57;6.13;;;;;;;;;;5051715;28;20530;-78
2022/04/08 07:01:13;;;;;;;9.00;5.45;;;;;;;;;;5051874;28;20027;-78
2022/04/08 07:03:39;;;;;;;14.25;5.15;;;;;;;;;;5050284;28;20136;-79
2022/04/08 07:06:05;;;;;;;8.93;4.38;;;;;;;;;;5050132;28;20036;-80
2022/04/08 07:08:31;;;;;;;5.20;3.30;;;;;;;;;;5061550;28;20104;-79
2022/04/08 07:10:57;;;;;;;5.85;3.42;;;;;;;;;;5053475;28;20107;-78
2022/04/08 07:13:23;;;;;;;13.70;4.35;;;;;;;;;;5071072;28;20366;-78
2022/04/08 07:15:49;;;;;;;6.63;2.97;;;;;;;;;;5071433;28;20020;-79
2022/04/08 07:18:15;;;;;;;4.68;3.15;;;;;;;;;;5053293;28;20075;-78
2022/04/08 07:20:42;;;;;;;8.55;3.30;;;;;;;;;;5071484;28;20048;-79
2022/04/08 07:23:08;;;;;;;4.80;2.78;;;;;;;;;;5053522;28;20032;-77
2022/04/08 07:25:34;;;;;;;12.13;3.30;;;;;;;;;;5070373;28;20507;-78
2022/04/08 07:28:00;;;;;;;11.60;4.57;;;;;;;;;;5053636;28;20035;-78
2022/04/08 07:30:26;;;;;;;5.82;3.28;;;;;;;;;;5053294;28;20497;-79
2022/04/08 07:32:54;;;;;;;8.68;3.58;;;;;;;;;;5071100;28;20452;-78
2022/04/08 07:35:21;;;;;;;8.10;3.47;;;;;;;;;;5074440;28;20027;-77
2022/04/08 07:37:47;;;;;;;11.27;7.43;;;;;;;;;;5057231;28;20021;-78
2022/04/08 07:40:13;;;;;;;6.75;3.83;;;;;;;;;;5075245;28;20089;-78
2022/04/08 07:42:40;;;;;;;5.18;3.03;;;;;;;;;;5057151;28;20057;-77
2022/04/08 07:45:07;;;;;;;8.75;3.97;;;;;;;;;;5075925;28;20062;-78
2022/04/08 07:47:33;;;;;;;6.60;3.47;;;;;;;;;;5075174;28;20106;-78
2022/04/08 07:50:04;;;;;;;6.30;3.00;;;;;;;;;;5075275;28;20024;-79
2022/04/08 07:52:30;;;;;;;7.80;2.97;;;;;;;;;;5075344;28;20028;-77
2022/04/08 07:54:56;;;;;;;10.40;3.00;;;;;;;;;;5057208;28;20016;-78
2022/04/08 07:57:23;;;;;;;5.30;2.85;;;;;;;;;;5075378;28;20024;-77
2022/04/08 07:59:49;;;;;;;6.97;3.08;;;;;;;;;;5074384;28;20527;-77
2022/04/08 08:02:15;;;;;;;7.18;3.63;;;;;;;;;;5056872;28;20047;-78
2022/04/08 08:04:41;;;;;;;6.63;3.28;;;;;;;;;;5057139;28;20043;-78
2022/04/08 08:07:07;;;;;;;11.70;3.50;;;;;;;;;;5074743;28;20024;-78
2022/04/08 08:09:33;;;;;;;8.55;2.90;;;;;;;;;;5074503;28;20027;-79
2022/04/08 08:12:00;;;;;;;7.63;3.42;;;;;;;;;;5075044;28;20086;-78
2022/04/08 08:14:26;;;;;;;6.15;3.50;;;;;;;;;;5074934;28;20032;-77
2022/04/08 08:16:52;;;;;;;9.70;3.47;;;;;;;;;;5074518;28;20059;-78
2022/04/08 08:19:18;;;;;;;7.22;2.97;;;;;;;;;;5056783;28;20033;-78
2022/04/08 08:21:46;;;;;;;5.88;3.15;;;;;;;;;;5074188;28;20491;-77
2022/04/08 08:24:12;;;;;;;5.75;3.55;;;;;;;;;;5074628;28;20049;-78
2022/04/08 08:26:38;;;;;;;5.90;2.65;;;;;;;;;;5056619;28;20103;-78
2022/04/08 08:29:04;;;;;;;10.75;3.25;;;;;;;;;;5073784;28;20052;-79
2022/04/08 08:31:30;;;;;;;11.75;3.17;;;;;;;;;;5073478;28;20495;-77
2022/04/08 08:33:56;;;;;;;7.72;3.60;;;;;;;;;;5073763;28;20023;-79
2022/04/08 08:36:22;;;;;;;11.40;3.78;;;;;;;;;;5073238;28;20024;-76
2022/04/08 08:38:49;;;;;;;10.77;2.65;;;;;;;;;;5074162;28;20564;-77
2022/04/08 08:41:18;;;;;;;5.65;2.85;;;;;;;;;;5074428;28;20066;-79
2022/04/08 08:43:45;;;;;;;10.90;3.10;;;;;;;;;;5074313;28;20021;-76
2022/04/08 08:46:12;;;;;;;8.63;2.97;;;;;;;;;;5073481;28;20017;-77
2022/04/08 08:48:38;;;;;;;7.85;2.60;;;;;;;;;;5076034;28;20045;-75
2022/04/08 08:51:06;;;;;;;9.10;3.35;;;;;;;;;;5055981;28;20076;-76
2022/04/08 08:53:33;;;;;;;7.70;3.42;;;;;;;;;;5074022;28;20029;-77
2022/04/08 08:56:00;;;;;;;15.77;3.60;;;;;;;;;;5073935;28;20024;-75
2022/04/08 08:58:26;;;;;;;7.10;3.10;;;;;;;;;;5073695;28;20078;-75
2022/04/08 09:00:52;;;;;;;5.47;3.13;;;;;;;;;;5073822;28;20050;-75
2022/04/08 09:03:18;;;;;;;7.15;2.97;;;;;;;;;;5073898;28;20033;-74
2022/04/08 09:05:45;;;;;;;9.38;3.33;;;;;;;;;;5073214;28;20021;-76
2022/04/08 09:08:13;;;;;;;7.13;3.30;;;;;;;;;;5054391;28;20028;-77
2022/04/08 09:10:48;;;;;;;7.45;2.72;;;;;;;;;;5073372;28;20074;-76
2022/04/08 09:13:20;;;;;;;9.55;3.50;;;537.80;1356.80;;;;;;5073289;28;20020;-76
2022/04/08 09:15:59;;;;;;;6.68;3.05;;;537.70;1331.20;;;;;;5073350;28;20391;-77
2022/04/08 09:18:30;;;;;;;14.88;4.80;;;538.00;1305.60;;;;;;5072677;28;20040;-79
2022/04/08 09:20:57;;;;;;;9.82;2.72;;;537.90;1356.80;;;;;;5073216;28;20025;-78
2022/04/08 09:23:23;;;;;;;6.07;3.63;;;537.60;1356.80;;;;;;5072089;28;20024;-77
2022/04/08 09:25:59;;;;;;;6.95;3.10;;;537.60;1356.80;;;;;;5072867;28;20074;-77
2022/04/08 09:28:31;;;;;;;4.82;2.53;;;537.80;1356.80;;;;;;5070396;28;20050;-78
2022/04/08 09:30:56;;;;;;;11.70;3.20;;;537.80;1356.80;;;;;;5072493;28;20016;-77
2022/04/08 09:33:25;;;;;;;11.10;3.10;;;537.80;1331.20;;;;;;5072567;28;20074;-78
2022/04/08 09:35:54;;;;;;;6.60;2.90;;;537.80;1254.40;;;;;;5054838;28;20085;-77
2022/04/08 09:38:30;;;;;;;11.77;3.20;;;537.80;1305.60;;;;;;5054424;28;20024;-76
2022/04/08 09:41:06;;;;;;;3.97;1.80;;;537.90;1254.40;;;;;;5054690;28;20021;-79
2022/04/08 09:43:36;;;;;;;7.03;2.20;;;537.90;1254.40;;;;;;5072189;28;20112;-78
2022/04/08 09:46:21;;;;;;;11.73;2.25;;;538.10;1280.00;;;;;;5054939;28;20021;-77
2022/04/08 09:48:48;;;;;;;4.80;2.47;;;538.10;1280.00;;;;;;5054807;28;20120;-76
2022/04/08 09:51:20;;;;;;;3.28;1.90;;;538.30;1280.00;;;;;;5056108;28;20076;-76
2022/04/08 09:53:54;;;;;;;4.88;2.03;;;538.40;1280.00;;;;;;5072589;28;20033;-77
2022/04/08 09:56:23;;;;;;;5.65;2.92;;;538.40;1280.00;;;;;;5072237;28;20020;-79
2022/04/08 09:59:21;;;;;;;9.07;1.98;;;563.20;1305.60;;;;;;5053476;28;20040;-75
2022/04/08 10:01:47;;;;;;;7.50;2.30;;;538.20;1280.00;;;;;;5065899;28;20045;-76
2022/04/08 10:04:14;;;;;;;10.88;3.10;;;538.30;1280.00;;;;;;5054608;28;20060;-75
2022/04/08 10:06:41;;;;;;;5.35;2.15;;;563.20;1280.00;;;;;;5072177;28;20046;-75
2022/04/08 10:09:10;;;;;;;8.32;2.92;;;563.20;1280.00;;;;;;5072261;28;20050;-74
2022/04/08 10:11:54;;;;;;;6.57;2.38;;;563.30;1254.40;;;;;;5072263;28;20047;-75
2022/04/08 10:14:35;;;;;;;5.82;2.03;;;538.50;1203.20;;;;;;5054275;28;20035;-74
2022/04/08 10:17:02;;;;;;;12.23;2.72;;;563.40;1280.00;;;;;;5072025;28;20034;-76
2022/04/08 10:19:29;;;;;;;12.02;2.55;;;563.40;1280.00;;;;;;5053830;28;20036;-75
2022/04/08 10:21:56;;;;;;;5.40;2.28;;;563.30;1280.00;;;;;;5071808;28;20021;-75
2022/04/08 10:24:29;;;;;;;7.28;2.47;;;538.50;1254.40;;;;;;5072069;28;20024;-75
2022/04/08 10:27:08;;;;;;;5.95;2.78;;;538.50;1280.00;;;;;;5071961;28;20047;-74
2022/04/08 10:29:34;;;;;;;6.97;2.38;;;563.20;1228.80;;;;;;5071953;28;20024;-75
2022/04/08 10:32:05;;;;;;;4.07;1.95;;;538.50;1280.00;;;;;;5071771;28;20024;-75
2022/04/08 10:34:32;;;;;;;11.73;2.35;;;563.40;1254.40;;;;;;5072115;28;20089;-75
2022/04/08 10:37:00;;;;;;;8.15;2.28;;;563.40;1280.00;;;;;;5071698;28;20036;-74
2022/04/08 10:39:26;;;;;;;5.10;2.33;;;563.70;1280.00;;;;;;5071878;28;20029;-75
2022/04/08 10:41:57;;;;;;;8.13;3.60;;;563.70;1254.40;;;;;;5053749;28;20033;-75
2022/04/08 10:44:34;;;;;;;8.13;2.45;;;563.70;1254.40;;;;;;5070486;28;20099;-76
2022/04/08 10:47:17;;;;;;;5.68;1.90;;;563.80;1203.20;;;;;;5067085;28;20043;-75
2022/04/08 10:49:53;;;;;;;8.18;2.53;;;563.80;1177.60;;;;;;5069799;28;20020;-74
2022/04/08 10:52:22;;;;;;;6.70;1.73;;;563.80;1203.20;;;;;;5073407;28;20036;-75
2022/04/08 10:54:49;;;;;;;6.13;1.95;;;588.80;1177.60;;;;;;5053947;28;20352;-75
2022/04/08 10:57:15;;;;;;;4.53;1.70;;;588.90;1152.00;;;;;;5052032;28;20024;-74
2022/04/08 10:59:51;;;;;;;5.38;2.22;;;564.10;1203.20;;;;;;5069146;28;20045;-77
2022/04/08 11:02:18;;;;;;;6.00;1.88;;;563.80;1228.80;;;;;;5042909;28;20111;-76
2022/04/08 11:04:43;;;;;;;14.52;3.72;;;564.00;1203.20;;;;;;5067567;28;20028;-77
2022/04/08 11:07:09;;;;;;;4.45;2.05;;;589.00;1177.60;;;;;;5070262;28;20021;-76
2022/04/08 11:09:35;;;;;;;5.70;1.98;;;589.30;1126.40;;;;;;5070671;28;20021;-75
2022/04/08 11:12:01;;;;;;;8.05;2.63;;;589.40;1126.40;;;;;;5053245;28;20029;-75
2022/04/08 11:14:29;;;;;;;7.30;2.92;;;589.30;1126.40;;;;;;5071183;28;20025;-75
2022/04/08 11:16:55;;;;;;;7.20;2.40;;;614.40;1100.80;;;;;;5071542;28;20115;-75
2022/04/08 11:19:22;;;;;;;6.75;2.45;;;614.70;1100.80;;;;;;5052237;28;20111;-75
2022/04/08 11:21:49;;;;;;;9.20;3.05;;;;;;;;;;5071341;28;20071;-75
2022/04/08 11:24:19;;;;;;;5.07;2.13;;;640.50;1049.60;;;;;;5071173;28;20432;-75
2022/04/08 11:26:52;;;;;;;3.70;2.00;;;640.60;1049.60;;;;;;5053288;28;20029;-77
2022/04/08 11:29:23;;;;;;;4.97;1.90;;;691.40;972.80;;;;;;5071065;28;20467;-75
2022/04/08 11:31:51;;;;;;;7.75;2.60;;;691.80;972.80;;;;;;5052865;28;20040;-77
2022/04/08 11:34:17;;;;;;;5.50;2.30;;;716.90;972.80;;;;;;5049660;28;20108;-76
2022/04/08 11:36:44;;;;;;;8.02;2.38;;;716.80;947.20;;;;;;5051376;28;20156;-76
2022/04/08 11:39:19;;;;;;;5.40;1.90;;;691.30;972.80;;;;;;5051052;28;20492;-76
2022/04/08 11:41:54;;;;;;;4.70;2.08;;;691.70;947.20;;;;;;5049816;28;20059;-77
2022/04/08 11:44:21;;;;;;;5.57;2.10;;;692.10;921.60;;;;;;5061881;28;20063;-77
2022/04/08 11:46:47;;;;;;;4.18;1.80;;;691.60;921.60;;;;;;5053198;28;20029;-78
2022/04/08 11:49:13;;;;;;;2.45;1.40;;;717.00;921.60;;;;;;5071185;28;20495;-77
2022/04/08 11:51:39;;;;;;;2.38;1.50;;;;;;;;;;5070568;28;20179;-76
2022/04/08 11:54:05;;;;;;;3.72;2.00;;;;;;;;;;5052755;28;20032;-76
2022/04/08 11:56:32;;;;;;;4.20;1.83;;;;;;;;;;5073608;28;20029;-75
2022/04/08 11:59:01;;;;;;;5.18;2.35;;;;;;;;;;5052546;28;20028;-76
2022/04/08 12:01:34;;;;;;;4.18;1.80;;;;;;;;;;5070061;28;20024;-76
2022/04/08 12:04:04;;;;;;;8.10;1.95;;;;;;;;;;5070114;28;20024;-76
2022/04/08 12:06:44;;;;;;;7.50;1.63;;;;;;;;;;5069946;28;20048;-76
2022/04/08 12:09:10;;;;;;;4.15;2.22;;;;;;;;;;5067706;28;20036;-76
2022/04/08 12:11:38;;;;;;;4.22;1.80;;;;;;;;;;5070624;28;20031;-75
2022/04/08 12:14:05;;;;;;;4.85;2.15;;;;;;;;;;5071003;28;20056;-76
2022/04/08 12:16:32;;;;;;;6.90;1.70;;;;;;;;;;5070653;28;20043;-75
2022/04/08 12:18:58;;;;;;;5.25;1.83;;;;;;;;;;5070330;28;20043;-75
2022/04/08 12:21:25;;;;;;;4.13;2.08;;;;;;;;;;5050843;28;20025;-76
2022/04/08 12:23:52;;;;;;;3.97;1.92;;;;;;;;;;5064674;28;20021;-75
2022/04/08 12:26:18;;;;;;;4.32;2.33;;;;;;;;;;5073832;28;20025;-74
2022/04/08 12:28:44;;;;;;;8.50;2.78;;;;;;;;;;5055718;28;20024;-75
2022/04/08 12:31:11;;;;;;;12.00;2.97;;;;;;;;;;5073614;28;20012;-76
2022/04/08 12:33:37;;;;;;;4.70;2.10;;;;;;;;;;5073355;28;20071;-76
2022/04/08 12:36:04;;;;;;;6.47;2.13;;;;;;;;;;5055740;28;20360;-75
2022/04/08 12:38:30;;;;;;;3.75;1.80;;;;;;;;;;5073525;28;20035;-76
2022/04/08 12:40:57;;;;;;;6.03;2.28;;;;;;;;;;5074055;28;20017;-76
2022/04/08 12:43:23;;;;;;;5.40;2.17;;;;;;;;;;5073862;28;20020;-77
2022/04/08 12:45:49;;;;;;;7.60;2.15;;;;;;;;;;5074071;28;20028;-75
2022/04/08 12:48:15;;;;;;;5.78;3.17;;;;;;;;;;5073934;28;20024;-75
2022/04/08 12:50:41;;;;;;;5.57;2.30;;;;;;;;;;5073861;28;20048;-74
2022/04/08 12:53:07;;;;;;;5.18;2.20;;;;;;;;;;5056166;28;20017;-76
2022/04/08 12:55:33;;;;;;;7.75;2.03;;;;;;;;;;5073662;28;20510;-74
2022/04/08 12:57:59;;;;;;;5.18;2.22;;;;;;;;;;5077262;28;20054;-74
2022/04/08 13:00:26;;;;;;;4.13;1.90;;;;;;;;;;5073236;28;20059;-75
2022/04/08 13:02:55;;;;;;;4.80;1.75;;;;;;;;;;5073447;28;20430;-74
2022/04/08 13:05:21;;;;;;;4.25;1.35;;;;;;;;;;5073666;28;20040;-75
2022/04/08 13:07:47;;;;;;;5.13;1.60;;;;;;;;;;5055770;28;20025;-76
2022/04/08 13:10:13;;;;;;;2.75;1.50;;;;;;;;;;5073629;28;20024;-74
2022/04/08 13:12:39;;;;;;;8.27;1.90;;;;;;;;;;5073514;28;20491;-74
2022/04/08 13:15:07;;;;;;;4.00;1.77;;;;;;;;;;5055528;28;20021;-75
2022/04/08 13:17:33;;;;;;;3.97;1.55;;;;;;;;;;5055490;28;20032;-75
2022/04/08 13:20:00;;;;;;;7.50;2.25;;;;;;;;;;5073457;28;20074;-75
2022/04/08 13:22:26;;;;;;;5.80;2.17;;;;;;;;;;5055238;28;20021;-74
2022/04/08 13:24:52;;;;;;;6.07;3.53;;;;;;;;;;5073131;28;20144;-75
2022/04/08 13:27:18;;;;;;;4.55;2.05;;;;;;;;;;5073099;28;20017;-75
2022/04/08 13:29:48;;;;;;;5.80;2.63;;;;;;;;;;5072513;28;20044;-75
2022/04/08 13:32:15;;;;;;;6.43;4.45;;;;;;;;;;5072425;28;20039;-77